sensor_id;sensor_type;location;lat;lon;timestamp;temperature;humidity
8664;DHT22;4369;47.842;13.096;2023-09-12T00:00:27;19.30;99.90
8664;DHT22;4369;47.842;13.096;2023-09-12T00:02:54;19.20;99.90
8664;DHT22;4369;47.842;13.096;2023-09-12T00:05:21;19.20;99.90
8664;DHT22;4369;47.842;13.096;2023-09-12T00:07:51;19.20;99.90
8664;DHT22;4369;47.842;13.096;2023-09-12T00:10:19;19.20;99.90
8664;DHT22;4369;47.842;13.096;2023-09-12T00:12:46;19.20;99.90
8664;DHT22;4369;47.842;13.096;2023-09-12T00:15:13;19.20;99.90
8664;DHT22;4369;47.842;13.096;2023-09-12T00:17:41;19.20;99.90
8664;DHT22;4369;47.842;13.096;2023-09-12T00:20:08;19.10;99.90
8664;DHT22;4369;47.842;13.096;2023-09-12T00:22:35;19.10;99.90
8664;DHT22;4369;47.842;13.096;2023-09-12T00:25:02;19.10;99.90
8664;DHT22;4369;47.842;13.096;2023-09-12T00:27:29;19.10;99.90
8664;DHT22;4369;47.842;13.096;2023-09-12T00:29:56;19.00;99.90
8664;DHT22;4369;47.842;13.096;2023-09-12T00:32:23;19.00;99.90
8664;DHT22;4369;47.842;13.096;2023-09-12T00:34:51;19.00;99.90
8664;DHT22;4369;47.842;13.096;2023-09-12T00:37:18;18.90;99.90
8664;DHT22;4369;47.842;13.096;2023-09-12T00:39:45;18.90;99.90
8664;DHT22;4369;47.842;13.096;2023-09-12T00:42:13;18.90;99.90
8664;DHT22;4369;47.842;13.096;2023-09-12T00:44:39;19.00;99.90
8664;DHT22;4369;47.842;13.096;2023-09-12T00:47:07;19.00;99.90
8664;DHT22;4369;47.842;13.096;2023-09-12T00:49:35;19.00;99.90
8664;DHT22;4369;47.842;13.096;2023-09-12T00:52:03;18.90;99.90
8664;DHT22;4369;47.842;13.096;2023-09-12T00:54:31;18.90;99.90
8664;DHT22;4369;47.842;13.096;2023-09-12T00:56:57;18.90;99.90
8664;DHT22;4369;47.842;13.096;2023-09-12T00:59:24;18.90;99.90
8664;DHT22;4369;47.842;13.096;2023-09-12T01:01:51;18.80;99.90
8664;DHT22;4369;47.842;13.096;2023-09-12T01:04:19;18.80;99.90
8664;DHT22;4369;47.842;13.096;2023-09-12T01:06:46;18.80;99.90
8664;DHT22;4369;47.842;13.096;2023-09-12T01:09:15;18.80;99.90
8664;DHT22;4369;47.842;13.096;2023-09-12T01:11:42;18.70;99.90
8664;DHT22;4369;47.842;13.096;2023-09-12T01:14:09;18.70;99.90
8664;DHT22;4369;47.842;13.096;2023-09-12T01:16:36;18.80;99.90
8664;DHT22;4369;47.842;13.096;2023-09-12T01:19:03;18.80;99.90
8664;DHT22;4369;47.842;13.096;2023-09-12T01:21:47;18.90;99.90
8664;DHT22;4369;47.842;13.096;2023-09-12T01:24:45;18.90;99.90
8664;DHT22;4369;47.842;13.096;2023-09-12T01:27:25;18.90;99.90
8664;DHT22;4369;47.842;13.096;2023-09-12T01:29:57;18.90;99.90
8664;DHT22;4369;47.842;13.096;2023-09-12T01:32:25;18.90;99.90
8664;DHT22;4369;47.842;13.096;2023-09-12T01:34:53;18.80;99.90
8664;DHT22;4369;47.842;13.096;2023-09-12T01:37:19;18.80;99.90
8664;DHT22;4369;47.842;13.096;2023-09-12T01:39:46;18.70;99.90
8664;DHT22;4369;47.842;13.096;2023-09-12T01:42:16;18.70;99.90
8664;DHT22;4369;47.842;13.096;2023-09-12T01:44:47;18.70;99.90
8664;DHT22;4369;47.842;13.096;2023-09-12T01:47:16;18.70;99.90
8664;DHT22;4369;47.842;13.096;2023-09-12T01:49:48;18.70;99.90
8664;DHT22;4369;47.842;13.096;2023-09-12T01:52:16;18.70;99.90
8664;DHT22;4369;47.842;13.096;2023-09-12T01:54:44;18.60;99.90
8664;DHT22;4369;47.842;13.096;2023-09-12T01:57:14;18.60;99.90
8664;DHT22;4369;47.842;13.096;2023-09-12T01:59:41;18.60;99.90
8664;DHT22;4369;47.842;13.096;2023-09-12T02:02:09;18.50;99.90
8664;DHT22;4369;47.842;13.096;2023-09-12T02:04:36;18.50;99.90
8664;DHT22;4369;47.842;13.096;2023-09-12T02:07:03;18.50;99.90
8664;DHT22;4369;47.842;13.096;2023-09-12T02:09:30;18.50;99.90
8664;DHT22;4369;47.842;13.096;2023-09-12T02:11:57;18.50;99.90
8664;DHT22;4369;47.842;13.096;2023-09-12T02:14:26;18.50;99.90
8664;DHT22;4369;47.842;13.096;2023-09-12T02:16:53;18.50;99.90
8664;DHT22;4369;47.842;13.096;2023-09-12T02:19:22;18.50;99.90
8664;DHT22;4369;47.842;13.096;2023-09-12T02:21:48;18.40;99.90
8664;DHT22;4369;47.842;13.096;2023-09-12T02:24:15;18.40;99.90
8664;DHT22;4369;47.842;13.096;2023-09-12T02:26:43;18.40;99.90
8664;DHT22;4369;47.842;13.096;2023-09-12T02:29:10;18.40;99.90
8664;DHT22;4369;47.842;13.096;2023-09-12T02:31:37;18.40;99.90
8664;DHT22;4369;47.842;13.096;2023-09-12T02:34:04;18.40;99.90
8664;DHT22;4369;47.842;13.096;2023-09-12T02:36:32;18.40;99.90
8664;DHT22;4369;47.842;13.096;2023-09-12T02:38:59;18.40;99.90
8664;DHT22;4369;47.842;13.096;2023-09-12T02:41:26;18.30;99.90
8664;DHT22;4369;47.842;13.096;2023-09-12T02:43:53;18.30;99.90
8664;DHT22;4369;47.842;13.096;2023-09-12T02:46:19;18.30;99.90
8664;DHT22;4369;47.842;13.096;2023-09-12T02:48:46;18.30;99.90
8664;DHT22;4369;47.842;13.096;2023-09-12T02:51:13;18.30;99.90
8664;DHT22;4369;47.842;13.096;2023-09-12T02:53:41;18.30;99.90
8664;DHT22;4369;47.842;13.096;2023-09-12T02:56:08;18.30;99.90
8664;DHT22;4369;47.842;13.096;2023-09-12T02:58:35;18.30;99.90
8664;DHT22;4369;47.842;13.096;2023-09-12T03:01:02;18.40;99.90
8664;DHT22;4369;47.842;13.096;2023-09-12T03:03:30;18.40;99.90
8664;DHT22;4369;47.842;13.096;2023-09-12T03:05:58;18.40;99.90
8664;DHT22;4369;47.842;13.096;2023-09-12T03:08:25;18.40;99.90
8664;DHT22;4369;47.842;13.096;2023-09-12T03:10:55;18.40;99.90
8664;DHT22;4369;47.842;13.096;2023-09-12T03:13:23;18.40;99.90
8664;DHT22;4369;47.842;13.096;2023-09-12T03:15:51;18.40;99.90
8664;DHT22;4369;47.842;13.096;2023-09-12T03:18:18;18.40;99.90
8664;DHT22;4369;47.842;13.096;2023-09-12T03:20:45;18.40;99.90
8664;DHT22;4369;47.842;13.096;2023-09-12T03:23:12;18.40;99.90
8664;DHT22;4369;47.842;13.096;2023-09-12T03:25:39;18.40;99.90
8664;DHT22;4369;47.842;13.096;2023-09-12T03:28:07;18.30;99.90
8664;DHT22;4369;47.842;13.096;2023-09-12T03:30:35;18.30;99.90
8664;DHT22;4369;47.842;13.096;2023-09-12T03:33:03;18.30;99.90
8664;DHT22;4369;47.842;13.096;2023-09-12T03:35:31;18.30;99.90
8664;DHT22;4369;47.842;13.096;2023-09-12T03:37:58;18.30;99.90
8664;DHT22;4369;47.842;13.096;2023-09-12T03:40:27;18.20;99.90
8664;DHT22;4369;47.842;13.096;2023-09-12T03:42:54;18.20;99.90
8664;DHT22;4369;47.842;13.096;2023-09-12T03:45:22;18.20;99.90
8664;DHT22;4369;47.842;13.096;2023-09-12T03:47:49;18.20;99.90
8664;DHT22;4369;47.842;13.096;2023-09-12T03:50:16;18.10;99.90
8664;DHT22;4369;47.842;13.096;2023-09-12T03:52:43;18.10;99.90
8664;DHT22;4369;47.842;13.096;2023-09-12T03:55:10;18.10;99.90
8664;DHT22;4369;47.842;13.096;2023-09-12T03:57:37;18.10;99.90
8664;DHT22;4369;47.842;13.096;2023-09-12T04:00:04;18.10;99.90
8664;DHT22;4369;47.842;13.096;2023-09-12T04:02:33;18.10;99.90
8664;DHT22;4369;47.842;13.096;2023-09-12T04:05:00;18.10;99.90
8664;DHT22;4369;47.842;13.096;2023-09-12T04:07:27;18.00;99.90
8664;DHT22;4369;47.842;13.096;2023-09-12T04:09:53;18.00;99.90
8664;DHT22;4369;47.842;13.096;2023-09-12T04:12:20;18.00;99.90
8664;DHT22;4369;47.842;13.096;2023-09-12T04:14:49;18.00;99.90
8664;DHT22;4369;47.842;13.096;2023-09-12T04:17:16;17.90;99.90
8664;DHT22;4369;47.842;13.096;2023-09-12T04:19:44;17.90;99.90
8664;DHT22;4369;47.842;13.096;2023-09-12T04:22:11;17.90;99.90
8664;DHT22;4369;47.842;13.096;2023-09-12T04:24:38;17.90;99.90
8664;DHT22;4369;47.842;13.096;2023-09-12T04:27:05;17.90;99.90
8664;DHT22;4369;47.842;13.096;2023-09-12T04:29:32;17.90;99.90
8664;DHT22;4369;47.842;13.096;2023-09-12T04:32:01;17.90;99.90
8664;DHT22;4369;47.842;13.096;2023-09-12T04:34:28;17.90;99.90
8664;DHT22;4369;47.842;13.096;2023-09-12T04:36:56;17.90;99.90
8664;DHT22;4369;47.842;13.096;2023-09-12T04:39:23;17.80;99.90
8664;DHT22;4369;47.842;13.096;2023-09-12T04:41:50;17.80;99.90
8664;DHT22;4369;47.842;13.096;2023-09-12T04:44:17;17.80;99.90
8664;DHT22;4369;47.842;13.096;2023-09-12T04:46:43;17.80;99.90
8664;DHT22;4369;47.842;13.096;2023-09-12T04:49:11;17.90;99.90
8664;DHT22;4369;47.842;13.096;2023-09-12T04:51:38;17.90;99.90
8664;DHT22;4369;47.842;13.096;2023-09-12T04:54:06;17.90;99.90
8664;DHT22;4369;47.842;13.096;2023-09-12T04:56:33;17.80;99.90
8664;DHT22;4369;47.842;13.096;2023-09-12T04:59:00;17.80;99.90
8664;DHT22;4369;47.842;13.096;2023-09-12T05:01:27;17.80;99.90
8664;DHT22;4369;47.842;13.096;2023-09-12T05:03:54;17.90;99.90
8664;DHT22;4369;47.842;13.096;2023-09-12T05:06:21;17.90;99.90
8664;DHT22;4369;47.842;13.096;2023-09-12T05:08:48;17.90;99.90
8664;DHT22;4369;47.842;13.096;2023-09-12T05:11:17;18.00;99.90
8664;DHT22;4369;47.842;13.096;2023-09-12T05:13:44;17.90;99.90
8664;DHT22;4369;47.842;13.096;2023-09-12T05:16:11;17.90;99.90
8664;DHT22;4369;47.842;13.096;2023-09-12T05:18:38;17.90;99.90
8664;DHT22;4369;47.842;13.096;2023-09-12T05:21:04;17.90;99.90
8664;DHT22;4369;47.842;13.096;2023-09-12T05:23:31;17.90;99.90
8664;DHT22;4369;47.842;13.096;2023-09-12T05:25:58;17.90;99.90
8664;DHT22;4369;47.842;13.096;2023-09-12T05:28:27;17.90;99.90
8664;DHT22;4369;47.842;13.096;2023-09-12T05:30:53;17.90;99.90
8664;DHT22;4369;47.842;13.096;2023-09-12T05:33:20;17.90;99.90
8664;DHT22;4369;47.842;13.096;2023-09-12T05:35:47;18.00;99.90
8664;DHT22;4369;47.842;13.096;2023-09-12T05:38:14;18.00;99.90
8664;DHT22;4369;47.842;13.096;2023-09-12T05:40:41;18.10;99.90
8664;DHT22;4369;47.842;13.096;2023-09-12T05:43:08;18.20;99.90
8664;DHT22;4369;47.842;13.096;2023-09-12T05:45:36;18.20;99.90
8664;DHT22;4369;47.842;13.096;2023-09-12T05:48:03;18.30;99.90
8664;DHT22;4369;47.842;13.096;2023-09-12T05:50:30;18.40;99.90
8664;DHT22;4369;47.842;13.096;2023-09-12T05:52:57;18.50;99.90
8664;DHT22;4369;47.842;13.096;2023-09-12T05:55:24;18.60;99.90
8664;DHT22;4369;47.842;13.096;2023-09-12T05:57:51;18.60;99.90
8664;DHT22;4369;47.842;13.096;2023-09-12T06:00:19;18.70;99.90
8664;DHT22;4369;47.842;13.096;2023-09-12T06:02:47;18.80;99.90
8664;DHT22;4369;47.842;13.096;2023-09-12T06:05:14;18.90;99.90
8664;DHT22;4369;47.842;13.096;2023-09-12T06:07:41;19.10;99.90
8664;DHT22;4369;47.842;13.096;2023-09-12T06:10:09;19.20;99.90
8664;DHT22;4369;47.842;13.096;2023-09-12T06:12:36;19.30;99.90
8664;DHT22;4369;47.842;13.096;2023-09-12T06:15:04;19.40;99.90
8664;DHT22;4369;47.842;13.096;2023-09-12T06:17:31;19.50;99.90
8664;DHT22;4369;47.842;13.096;2023-09-12T06:19:59;19.60;99.90
8664;DHT22;4369;47.842;13.096;2023-09-12T06:22:26;19.60;99.90
8664;DHT22;4369;47.842;13.096;2023-09-12T06:24:53;19.70;99.90
8664;DHT22;4369;47.842;13.096;2023-09-12T06:27:20;19.80;99.90
8664;DHT22;4369;47.842;13.096;2023-09-12T06:29:47;19.90;99.90
8664;DHT22;4369;47.842;13.096;2023-09-12T06:32:15;19.90;99.90
8664;DHT22;4369;47.842;13.096;2023-09-12T06:34:42;20.00;99.90
8664;DHT22;4369;47.842;13.096;2023-09-12T06:37:11;20.10;99.90
8664;DHT22;4369;47.842;13.096;2023-09-12T06:39:38;20.10;99.90
8664;DHT22;4369;47.842;13.096;2023-09-12T06:42:05;20.20;99.90
8664;DHT22;4369;47.842;13.096;2023-09-12T06:44:33;20.20;99.90
8664;DHT22;4369;47.842;13.096;2023-09-12T06:46:59;20.30;99.90
8664;DHT22;4369;47.842;13.096;2023-09-12T06:49:26;20.40;99.90
8664;DHT22;4369;47.842;13.096;2023-09-12T06:51:53;20.40;99.90
8664;DHT22;4369;47.842;13.096;2023-09-12T06:54:21;20.50;99.90
8664;DHT22;4369;47.842;13.096;2023-09-12T06:56:48;20.50;99.90
8664;DHT22;4369;47.842;13.096;2023-09-12T06:59:15;20.60;99.90
8664;DHT22;4369;47.842;13.096;2023-09-12T07:01:42;20.70;99.90
8664;DHT22;4369;47.842;13.096;2023-09-12T07:04:09;20.80;99.90
8664;DHT22;4369;47.842;13.096;2023-09-12T07:06:36;20.80;99.90
8664;DHT22;4369;47.842;13.096;2023-09-12T07:09:02;20.90;99.90
8664;DHT22;4369;47.842;13.096;2023-09-12T07:11:31;21.00;99.90
8664;DHT22;4369;47.842;13.096;2023-09-12T07:13:58;21.10;99.90
8664;DHT22;4369;47.842;13.096;2023-09-12T07:16:25;21.20;99.90
8664;DHT22;4369;47.842;13.096;2023-09-12T07:18:52;21.20;99.90
8664;DHT22;4369;47.842;13.096;2023-09-12T07:21:19;21.30;99.90
8664;DHT22;4369;47.842;13.096;2023-09-12T07:23:47;21.40;99.90
8664;DHT22;4369;47.842;13.096;2023-09-12T07:26:14;21.50;99.90
8664;DHT22;4369;47.842;13.096;2023-09-12T07:28:43;21.50;99.90
8664;DHT22;4369;47.842;13.096;2023-09-12T07:31:10;21.60;99.90
8664;DHT22;4369;47.842;13.096;2023-09-12T07:33:37;21.70;99.90
8664;DHT22;4369;47.842;13.096;2023-09-12T07:36:04;21.80;99.90
8664;DHT22;4369;47.842;13.096;2023-09-12T07:38:31;21.80;99.90
8664;DHT22;4369;47.842;13.096;2023-09-12T07:41:00;21.90;99.90
8664;DHT22;4369;47.842;13.096;2023-09-12T07:43:28;22.00;99.90
8664;DHT22;4369;47.842;13.096;2023-09-12T07:45:57;22.00;99.90
8664;DHT22;4369;47.842;13.096;2023-09-12T07:48:24;22.10;99.90
8664;DHT22;4369;47.842;13.096;2023-09-12T07:50:51;22.20;99.90
8664;DHT22;4369;47.842;13.096;2023-09-12T07:53:18;22.30;99.90
8664;DHT22;4369;47.842;13.096;2023-09-12T07:55:45;22.40;99.90
8664;DHT22;4369;47.842;13.096;2023-09-12T07:58:13;22.50;99.90
8664;DHT22;4369;47.842;13.096;2023-09-12T08:00:40;22.60;99.90
8664;DHT22;4369;47.842;13.096;2023-09-12T08:03:08;22.70;99.90
8664;DHT22;4369;47.842;13.096;2023-09-12T08:05:35;22.80;99.90
8664;DHT22;4369;47.842;13.096;2023-09-12T08:08:02;22.80;99.90
8664;DHT22;4369;47.842;13.096;2023-09-12T08:10:29;22.90;99.90
8664;DHT22;4369;47.842;13.096;2023-09-12T08:12:56;23.00;99.90
8664;DHT22;4369;47.842;13.096;2023-09-12T08:15:23;23.10;99.90
8664;DHT22;4369;47.842;13.096;2023-09-12T08:17:50;23.10;99.90
8664;DHT22;4369;47.842;13.096;2023-09-12T08:20:20;23.20;99.90
8664;DHT22;4369;47.842;13.096;2023-09-12T08:22:47;23.30;99.90
8664;DHT22;4369;47.842;13.096;2023-09-12T08:25:14;23.40;99.90
8664;DHT22;4369;47.842;13.096;2023-09-12T08:27:41;23.50;99.90
8664;DHT22;4369;47.842;13.096;2023-09-12T08:30:10;23.60;99.90
8664;DHT22;4369;47.842;13.096;2023-09-12T08:32:38;23.70;99.90
8664;DHT22;4369;47.842;13.096;2023-09-12T08:35:09;23.80;99.90
8664;DHT22;4369;47.842;13.096;2023-09-12T08:37:39;23.90;99.90
8664;DHT22;4369;47.842;13.096;2023-09-12T08:40:08;24.00;99.90
8664;DHT22;4369;47.842;13.096;2023-09-12T08:42:39;24.00;99.90
8664;DHT22;4369;47.842;13.096;2023-09-12T08:45:11;24.10;99.90
8664;DHT22;4369;47.842;13.096;2023-09-12T08:47:40;24.20;99.90
8664;DHT22;4369;47.842;13.096;2023-09-12T08:50:10;24.30;99.90
8664;DHT22;4369;47.842;13.096;2023-09-12T08:52:40;24.30;99.90
8664;DHT22;4369;47.842;13.096;2023-09-12T08:55:08;24.50;99.90
8664;DHT22;4369;47.842;13.096;2023-09-12T08:57:37;24.70;99.90
8664;DHT22;4369;47.842;13.096;2023-09-12T09:00:06;24.90;99.90
8664;DHT22;4369;47.842;13.096;2023-09-12T09:02:34;24.90;88.60
8664;DHT22;4369;47.842;13.096;2023-09-12T09:05:02;25.00;90.30
8664;DHT22;4369;47.842;13.096;2023-09-12T09:07:32;25.10;93.60
8664;DHT22;4369;47.842;13.096;2023-09-12T09:10:03;25.10;44.90
8664;DHT22;4369;47.842;13.096;2023-09-12T09:12:31;25.20;20.80
8664;DHT22;4369;47.842;13.096;2023-09-12T09:14:58;25.40;26.80
8664;DHT22;4369;47.842;13.096;2023-09-12T09:17:26;25.50;14.30
8664;DHT22;4369;47.842;13.096;2023-09-12T09:19:53;25.60;99.90
8664;DHT22;4369;47.842;13.096;2023-09-12T09:22:20;25.80;99.90
8664;DHT22;4369;47.842;13.096;2023-09-12T09:24:48;25.90;99.90
8664;DHT22;4369;47.842;13.096;2023-09-12T09:27:32;26.10;6.80
8664;DHT22;4369;47.842;13.096;2023-09-12T09:30:00;26.30;1.00
8664;DHT22;4369;47.842;13.096;2023-09-12T09:32:29;26.50;1.00
8664;DHT22;4369;47.842;13.096;2023-09-12T09:34:56;26.60;1.00
8664;DHT22;4369;47.842;13.096;2023-09-12T09:37:23;26.70;1.00
8664;DHT22;4369;47.842;13.096;2023-09-12T09:39:51;26.80;1.00
8664;DHT22;4369;47.842;13.096;2023-09-12T09:42:18;27.00;1.00
8664;DHT22;4369;47.842;13.096;2023-09-12T09:44:47;27.00;1.00
8664;DHT22;4369;47.842;13.096;2023-09-12T09:47:15;27.40;1.00
8664;DHT22;4369;47.842;13.096;2023-09-12T09:49:45;27.60;1.00
8664;DHT22;4369;47.842;13.096;2023-09-12T09:52:13;27.60;1.00
8664;DHT22;4369;47.842;13.096;2023-09-12T09:54:43;27.70;1.00
8664;DHT22;4369;47.842;13.096;2023-09-12T09:57:11;27.90;1.00
8664;DHT22;4369;47.842;13.096;2023-09-12T09:59:37;28.30;1.00
8664;DHT22;4369;47.842;13.096;2023-09-12T10:02:12;28.40;1.00
8664;DHT22;4369;47.842;13.096;2023-09-12T10:04:41;28.40;1.00
8664;DHT22;4369;47.842;13.096;2023-09-12T10:07:09;28.30;1.00
8664;DHT22;4369;47.842;13.096;2023-09-12T10:09:36;28.50;1.00
8664;DHT22;4369;47.842;13.096;2023-09-12T10:12:04;28.60;1.00
8664;DHT22;4369;47.842;13.096;2023-09-12T10:14:31;28.60;1.00
8664;DHT22;4369;47.842;13.096;2023-09-12T10:17:01;28.70;1.00
8664;DHT22;4369;47.842;13.096;2023-09-12T10:19:36;29.10;1.00
8664;DHT22;4369;47.842;13.096;2023-09-12T10:22:09;29.20;1.00
8664;DHT22;4369;47.842;13.096;2023-09-12T10:24:37;29.30;1.00
8664;DHT22;4369;47.842;13.096;2023-09-12T10:27:06;29.40;1.00
8664;DHT22;4369;47.842;13.096;2023-09-12T10:29:34;29.50;1.00
8664;DHT22;4369;47.842;13.096;2023-09-12T10:32:02;29.80;1.00
8664;DHT22;4369;47.842;13.096;2023-09-12T10:34:31;30.00;1.00
8664;DHT22;4369;47.842;13.096;2023-09-12T10:36:59;30.10;1.00
8664;DHT22;4369;47.842;13.096;2023-09-12T10:39:27;30.40;1.00
8664;DHT22;4369;47.842;13.096;2023-09-12T10:41:55;30.70;1.00
8664;DHT22;4369;47.842;13.096;2023-09-12T10:44:24;30.60;1.00
8664;DHT22;4369;47.842;13.096;2023-09-12T10:46:52;30.70;1.00
8664;DHT22;4369;47.842;13.096;2023-09-12T10:49:20;30.90;1.00
8664;DHT22;4369;47.842;13.096;2023-09-12T10:51:49;31.10;1.00
8664;DHT22;4369;47.842;13.096;2023-09-12T10:54:23;31.30;1.00
8664;DHT22;4369;47.842;13.096;2023-09-12T10:57:02;31.30;1.00
8664;DHT22;4369;47.842;13.096;2023-09-12T10:59:30;31.40;1.00
8664;DHT22;4369;47.842;13.096;2023-09-12T11:02:28;31.40;1.00
8664;DHT22;4369;47.842;13.096;2023-09-12T11:04:56;31.70;1.00
8664;DHT22;4369;47.842;13.096;2023-09-12T11:07:44;31.80;1.00
8664;DHT22;4369;47.842;13.096;2023-09-12T11:10:19;32.10;1.00
8664;DHT22;4369;47.842;13.096;2023-09-12T11:12:47;32.20;1.00
8664;DHT22;4369;47.842;13.096;2023-09-12T11:15:15;32.30;1.00
8664;DHT22;4369;47.842;13.096;2023-09-12T11:17:43;32.40;1.00
8664;DHT22;4369;47.842;13.096;2023-09-12T11:20:11;32.50;1.00
8664;DHT22;4369;47.842;13.096;2023-09-12T11:22:40;32.70;1.00
8664;DHT22;4369;47.842;13.096;2023-09-12T11:25:18;32.80;1.00
8664;DHT22;4369;47.842;13.096;2023-09-12T11:28:01;32.60;1.00
8664;DHT22;4369;47.842;13.096;2023-09-12T11:30:29;32.50;1.00
8664;DHT22;4369;47.842;13.096;2023-09-12T11:32:57;32.50;1.00
8664;DHT22;4369;47.842;13.096;2023-09-12T11:35:26;32.70;1.00
8664;DHT22;4369;47.842;13.096;2023-09-12T11:37:58;32.80;1.00
8664;DHT22;4369;47.842;13.096;2023-09-12T11:40:27;33.00;1.00
8664;DHT22;4369;47.842;13.096;2023-09-12T11:43:11;32.80;1.00
8664;DHT22;4369;47.842;13.096;2023-09-12T11:45:44;32.90;1.00
8664;DHT22;4369;47.842;13.096;2023-09-12T11:48:11;32.70;1.00
8664;DHT22;4369;47.842;13.096;2023-09-12T11:50:38;32.70;1.00
8664;DHT22;4369;47.842;13.096;2023-09-12T11:53:11;32.70;1.00
8664;DHT22;4369;47.842;13.096;2023-09-12T11:55:43;32.70;1.00
8664;DHT22;4369;47.842;13.096;2023-09-12T11:58:10;32.80;1.00
8664;DHT22;4369;47.842;13.096;2023-09-12T12:00:37;32.90;1.00
8664;DHT22;4369;47.842;13.096;2023-09-12T12:03:09;33.20;1.00
8664;DHT22;4369;47.842;13.096;2023-09-12T12:05:36;33.10;1.00
8664;DHT22;4369;47.842;13.096;2023-09-12T12:08:04;33.30;1.00
8664;DHT22;4369;47.842;13.096;2023-09-12T12:10:32;33.70;1.00
8664;DHT22;4369;47.842;13.096;2023-09-12T12:12:59;34.10;1.00
8664;DHT22;4369;47.842;13.096;2023-09-12T12:15:27;34.50;1.00
8664;DHT22;4369;47.842;13.096;2023-09-12T12:17:54;35.00;1.00
8664;DHT22;4369;47.842;13.096;2023-09-12T12:20:22;35.20;1.00
8664;DHT22;4369;47.842;13.096;2023-09-12T12:22:49;35.10;1.00
8664;DHT22;4369;47.842;13.096;2023-09-12T12:25:17;35.00;1.00
8664;DHT22;4369;47.842;13.096;2023-09-12T12:27:46;34.80;1.00
8664;DHT22;4369;47.842;13.096;2023-09-12T12:30:13;34.60;1.00
8664;DHT22;4369;47.842;13.096;2023-09-12T12:32:41;34.00;1.00
8664;DHT22;4369;47.842;13.096;2023-09-12T12:35:08;34.00;1.00
8664;DHT22;4369;47.842;13.096;2023-09-12T12:37:36;34.00;1.00
8664;DHT22;4369;47.842;13.096;2023-09-12T12:40:04;34.10;1.00
8664;DHT22;4369;47.842;13.096;2023-09-12T12:42:37;34.00;1.00
8664;DHT22;4369;47.842;13.096;2023-09-12T12:45:12;33.80;1.00
8664;DHT22;4369;47.842;13.096;2023-09-12T12:47:39;33.10;1.00
8664;DHT22;4369;47.842;13.096;2023-09-12T12:50:08;32.90;1.00
8664;DHT22;4369;47.842;13.096;2023-09-12T12:52:35;32.80;1.00
8664;DHT22;4369;47.842;13.096;2023-09-12T12:55:08;33.10;1.00
8664;DHT22;4369;47.842;13.096;2023-09-12T12:57:36;33.90;1.00
8664;DHT22;4369;47.842;13.096;2023-09-12T13:00:07;35.60;1.00
8664;DHT22;4369;47.842;13.096;2023-09-12T13:02:38;37.80;1.00
8664;DHT22;4369;47.842;13.096;2023-09-12T13:05:19;39.10;1.00
8664;DHT22;4369;47.842;13.096;2023-09-12T13:07:46;40.50;1.00
8664;DHT22;4369;47.842;13.096;2023-09-12T13:10:13;43.20;1.00
8664;DHT22;4369;47.842;13.096;2023-09-12T13:12:40;43.10;1.00
8664;DHT22;4369;47.842;13.096;2023-09-12T13:15:12;41.60;1.00
8664;DHT22;4369;47.842;13.096;2023-09-12T13:17:40;40.20;1.00
8664;DHT22;4369;47.842;13.096;2023-09-12T13:20:08;38.90;1.00
8664;DHT22;4369;47.842;13.096;2023-09-12T13:22:36;38.30;1.00
8664;DHT22;4369;47.842;13.096;2023-09-12T13:25:04;37.80;1.00
8664;DHT22;4369;47.842;13.096;2023-09-12T13:27:31;38.20;1.00
8664;DHT22;4369;47.842;13.096;2023-09-12T13:29:58;40.00;1.00
8664;DHT22;4369;47.842;13.096;2023-09-12T13:32:25;42.00;1.00
8664;DHT22;4369;47.842;13.096;2023-09-12T13:34:54;42.40;1.00
8664;DHT22;4369;47.842;13.096;2023-09-12T13:37:21;41.40;1.00
8664;DHT22;4369;47.842;13.096;2023-09-12T13:39:47;41.60;1.00
8664;DHT22;4369;47.842;13.096;2023-09-12T13:42:16;42.20;1.00
8664;DHT22;4369;47.842;13.096;2023-09-12T13:44:45;42.80;1.00
8664;DHT22;4369;47.842;13.096;2023-09-12T13:47:11;42.10;1.00
8664;DHT22;4369;47.842;13.096;2023-09-12T13:49:40;42.00;1.00
8664;DHT22;4369;47.842;13.096;2023-09-12T13:52:08;41.90;1.00
8664;DHT22;4369;47.842;13.096;2023-09-12T13:54:35;41.00;1.00
8664;DHT22;4369;47.842;13.096;2023-09-12T13:57:02;40.30;1.00
8664;DHT22;4369;47.842;13.096;2023-09-12T13:59:29;39.70;1.00
8664;DHT22;4369;47.842;13.096;2023-09-12T14:01:56;38.70;1.00
8664;DHT22;4369;47.842;13.096;2023-09-12T14:04:23;37.70;1.00
8664;DHT22;4369;47.842;13.096;2023-09-12T14:06:50;37.10;1.00
8664;DHT22;4369;47.842;13.096;2023-09-12T14:09:18;37.70;1.00
8664;DHT22;4369;47.842;13.096;2023-09-12T14:11:45;39.70;1.00
8664;DHT22;4369;47.842;13.096;2023-09-12T14:14:13;42.20;1.00
8664;DHT22;4369;47.842;13.096;2023-09-12T14:16:40;44.70;99.90
8664;DHT22;4369;47.842;13.096;2023-09-12T14:19:06;46.00;99.90
8664;DHT22;4369;47.842;13.096;2023-09-12T14:21:33;47.00;99.90
8664;DHT22;4369;47.842;13.096;2023-09-12T14:24:00;48.20;99.90
8664;DHT22;4369;47.842;13.096;2023-09-12T14:26:28;49.60;99.90
8664;DHT22;4369;47.842;13.096;2023-09-12T14:28:55;51.10;99.90
8664;DHT22;4369;47.842;13.096;2023-09-12T14:31:22;51.30;99.90
8664;DHT22;4369;47.842;13.096;2023-09-12T14:33:49;51.70;99.90
8664;DHT22;4369;47.842;13.096;2023-09-12T14:36:18;52.10;99.90
8664;DHT22;4369;47.842;13.096;2023-09-12T14:38:45;52.50;99.90
8664;DHT22;4369;47.842;13.096;2023-09-12T14:41:13;52.50;99.90
8664;DHT22;4369;47.842;13.096;2023-09-12T14:43:41;52.60;99.90
8664;DHT22;4369;47.842;13.096;2023-09-12T14:46:08;52.30;99.90
8664;DHT22;4369;47.842;13.096;2023-09-12T14:48:35;52.10;99.90
8664;DHT22;4369;47.842;13.096;2023-09-12T14:51:02;51.20;99.90
8664;DHT22;4369;47.842;13.096;2023-09-12T14:53:31;51.20;99.90
8664;DHT22;4369;47.842;13.096;2023-09-12T14:55:58;50.90;99.90
8664;DHT22;4369;47.842;13.096;2023-09-12T14:58:25;50.10;99.90
8664;DHT22;4369;47.842;13.096;2023-09-12T15:00:53;49.60;99.90
8664;DHT22;4369;47.842;13.096;2023-09-12T15:03:20;49.40;99.90
8664;DHT22;4369;47.842;13.096;2023-09-12T15:05:47;48.50;99.90
8664;DHT22;4369;47.842;13.096;2023-09-12T15:08:14;48.00;99.90
8664;DHT22;4369;47.842;13.096;2023-09-12T15:10:41;47.40;99.90
8664;DHT22;4369;47.842;13.096;2023-09-12T15:13:07;46.60;99.90
8664;DHT22;4369;47.842;13.096;2023-09-12T15:15:35;45.90;99.90
8664;DHT22;4369;47.842;13.096;2023-09-12T15:18:04;45.30;99.90
8664;DHT22;4369;47.842;13.096;2023-09-12T15:20:32;44.70;99.90
8664;DHT22;4369;47.842;13.096;2023-09-12T15:22:59;43.80;99.90
8664;DHT22;4369;47.842;13.096;2023-09-12T15:25:25;42.90;99.90
8664;DHT22;4369;47.842;13.096;2023-09-12T15:27:52;41.70;99.90
8664;DHT22;4369;47.842;13.096;2023-09-12T15:30:19;40.20;99.90
8664;DHT22;4369;47.842;13.096;2023-09-12T15:32:46;38.80;99.90
8664;DHT22;4369;47.842;13.096;2023-09-12T15:35:14;37.40;1.00
8664;DHT22;4369;47.842;13.096;2023-09-12T15:37:41;36.30;1.00
8664;DHT22;4369;47.842;13.096;2023-09-12T15:40:09;35.40;1.00
8664;DHT22;4369;47.842;13.096;2023-09-12T15:42:36;34.70;1.00
8664;DHT22;4369;47.842;13.096;2023-09-12T15:45:03;33.90;1.00
8664;DHT22;4369;47.842;13.096;2023-09-12T15:47:33;33.40;1.00
8664;DHT22;4369;47.842;13.096;2023-09-12T15:50:00;32.90;1.00
8664;DHT22;4369;47.842;13.096;2023-09-12T15:52:29;32.30;1.00
8664;DHT22;4369;47.842;13.096;2023-09-12T15:54:56;31.80;1.00
8664;DHT22;4369;47.842;13.096;2023-09-12T15:57:23;31.50;1.00